sensor_id;sensor_type;location;lat;lon;timestamp;temperature;humidity
31527;DHT22;18136;42.236;-73.040;2022-08-06T00:01:56;24.20;99.90
31527;DHT22;18136;42.236;-73.040;2022-08-06T00:04:23;24.20;99.90
31527;DHT22;18136;42.236;-73.040;2022-08-06T00:06:49;24.20;99.90
31527;DHT22;18136;42.236;-73.040;2022-08-06T00:09:16;24.10;99.90
31527;DHT22;18136;42.236;-73.040;2022-08-06T00:11:44;24.10;99.90
31527;DHT22;18136;42.236;-73.040;2022-08-06T00:14:11;24.00;99.90
31527;DHT22;18136;42.236;-73.040;2022-08-06T00:16:37;24.00;99.90
31527;DHT22;18136;42.236;-73.040;2022-08-06T00:19:04;24.00;99.90
31527;DHT22;18136;42.236;-73.040;2022-08-06T00:21:33;23.90;99.90
31527;DHT22;18136;42.236;-73.040;2022-08-06T00:24:08;23.90;99.90
31527;DHT22;18136;42.236;-73.040;2022-08-06T00:26:34;23.80;99.90
31527;DHT22;18136;42.236;-73.040;2022-08-06T00:29:00;23.80;99.90
31527;DHT22;18136;42.236;-73.040;2022-08-06T00:31:26;23.80;99.90
31527;DHT22;18136;42.236;-73.040;2022-08-06T00:33:52;23.70;99.90
31527;DHT22;18136;42.236;-73.040;2022-08-06T00:36:24;23.60;99.90
31527;DHT22;18136;42.236;-73.040;2022-08-06T00:38:50;23.60;99.90
31527;DHT22;18136;42.236;-73.040;2022-08-06T00:41:17;23.50;99.90
31527;DHT22;18136;42.236;-73.040;2022-08-06T00:43:43;23.50;99.90
31527;DHT22;18136;42.236;-73.040;2022-08-06T00:46:10;23.50;99.90
31527;DHT22;18136;42.236;-73.040;2022-08-06T00:48:36;23.40;99.90
31527;DHT22;18136;42.236;-73.040;2022-08-06T00:51:06;23.40;99.90
31527;DHT22;18136;42.236;-73.040;2022-08-06T00:53:33;23.40;99.90
31527;DHT22;18136;42.236;-73.040;2022-08-06T00:56:03;23.30;99.90
31527;DHT22;18136;42.236;-73.040;2022-08-06T00:58:29;23.30;99.90
31527;DHT22;18136;42.236;-73.040;2022-08-06T01:00:56;23.30;99.90
31527;DHT22;18136;42.236;-73.040;2022-08-06T01:03:22;23.20;99.90
31527;DHT22;18136;42.236;-73.040;2022-08-06T01:06:15;23.20;99.90
31527;DHT22;18136;42.236;-73.040;2022-08-06T01:08:41;23.10;99.90
31527;DHT22;18136;42.236;-73.040;2022-08-06T01:11:08;23.10;99.90
31527;DHT22;18136;42.236;-73.040;2022-08-06T01:13:34;23.10;99.90
31527;DHT22;18136;42.236;-73.040;2022-08-06T01:29:57;22.80;99.90
31527;DHT22;18136;42.236;-73.040;2022-08-06T01:32:35;22.80;99.90
31527;DHT22;18136;42.236;-73.040;2022-08-06T01:35:12;22.80;99.90
31527;DHT22;18136;42.236;-73.040;2022-08-06T01:37:59;22.70;99.90
31527;DHT22;18136;42.236;-73.040;2022-08-06T01:40:31;22.70;99.90
31527;DHT22;18136;42.236;-73.040;2022-08-06T01:43:02;22.70;99.90
31527;DHT22;18136;42.236;-73.040;2022-08-06T01:45:32;22.70;99.90
31527;DHT22;18136;42.236;-73.040;2022-08-06T01:48:05;22.70;99.90
31527;DHT22;18136;42.236;-73.040;2022-08-06T01:53:53;22.60;99.90
31527;DHT22;18136;42.236;-73.040;2022-08-06T01:56:21;22.60;99.90
31527;DHT22;18136;42.236;-73.040;2022-08-06T01:58:51;22.50;99.90
31527;DHT22;18136;42.236;-73.040;2022-08-06T02:01:19;22.50;99.90
31527;DHT22;18136;42.236;-73.040;2022-08-06T02:03:53;22.50;99.90
31527;DHT22;18136;42.236;-73.040;2022-08-06T02:06:28;22.40;99.90
31527;DHT22;18136;42.236;-73.040;2022-08-06T02:09:19;22.40;99.90
31527;DHT22;18136;42.236;-73.040;2022-08-06T02:11:50;22.40;99.90
31527;DHT22;18136;42.236;-73.040;2022-08-06T02:14:21;22.30;99.90
31527;DHT22;18136;42.236;-73.040;2022-08-06T02:16:48;22.30;99.90
31527;DHT22;18136;42.236;-73.040;2022-08-06T02:19:16;22.30;99.90
31527;DHT22;18136;42.236;-73.040;2022-08-06T02:21:45;22.20;99.90
31527;DHT22;18136;42.236;-73.040;2022-08-06T02:24:12;22.20;99.90
31527;DHT22;18136;42.236;-73.040;2022-08-06T02:26:41;22.20;99.90
31527;DHT22;18136;42.236;-73.040;2022-08-06T02:29:14;22.20;99.90
31527;DHT22;18136;42.236;-73.040;2022-08-06T02:31:46;22.10;99.90
31527;DHT22;18136;42.236;-73.040;2022-08-06T02:34:26;22.10;99.90
31527;DHT22;18136;42.236;-73.040;2022-08-06T02:37:21;22.10;99.90
31527;DHT22;18136;42.236;-73.040;2022-08-06T02:39:52;22.10;99.90
31527;DHT22;18136;42.236;-73.040;2022-08-06T02:45:33;22.10;99.90
31527;DHT22;18136;42.236;-73.040;2022-08-06T02:50:37;22.10;99.90
31527;DHT22;18136;42.236;-73.040;2022-08-06T02:53:09;22.00;99.90
31527;DHT22;18136;42.236;-73.040;2022-08-06T02:55:39;22.00;99.90
31527;DHT22;18136;42.236;-73.040;2022-08-06T02:58:13;22.00;99.90
31527;DHT22;18136;42.236;-73.040;2022-08-06T03:00:43;22.00;99.90
31527;DHT22;18136;42.236;-73.040;2022-08-06T03:03:12;22.00;99.90
31527;DHT22;18136;42.236;-73.040;2022-08-06T03:05:41;22.00;99.90
31527;DHT22;18136;42.236;-73.040;2022-08-06T03:08:09;21.90;99.90
31527;DHT22;18136;42.236;-73.040;2022-08-06T03:10:36;21.90;99.90
31527;DHT22;18136;42.236;-73.040;2022-08-06T03:13:04;21.90;99.90
31527;DHT22;18136;42.236;-73.040;2022-08-06T03:15:34;21.90;99.90
31527;DHT22;18136;42.236;-73.040;2022-08-06T03:18:03;21.90;99.90
31527;DHT22;18136;42.236;-73.040;2022-08-06T03:20:30;21.90;99.90
31527;DHT22;18136;42.236;-73.040;2022-08-06T03:23:00;21.90;99.90
31527;DHT22;18136;42.236;-73.040;2022-08-06T03:25:29;21.90;99.90
31527;DHT22;18136;42.236;-73.040;2022-08-06T03:27:57;21.80;99.90
31527;DHT22;18136;42.236;-73.040;2022-08-06T03:30:23;21.80;99.90
31527;DHT22;18136;42.236;-73.040;2022-08-06T03:32:51;21.80;99.90
31527;DHT22;18136;42.236;-73.040;2022-08-06T03:35:18;21.80;99.90
31527;DHT22;18136;42.236;-73.040;2022-08-06T03:37:46;21.80;99.90
31527;DHT22;18136;42.236;-73.040;2022-08-06T03:40:13;21.80;99.90
31527;DHT22;18136;42.236;-73.040;2022-08-06T03:42:40;21.70;99.90
31527;DHT22;18136;42.236;-73.040;2022-08-06T03:45:07;21.70;99.90
31527;DHT22;18136;42.236;-73.040;2022-08-06T03:47:45;21.70;99.90
31527;DHT22;18136;42.236;-73.040;2022-08-06T03:50:15;21.60;99.90
31527;DHT22;18136;42.236;-73.040;2022-08-06T03:52:54;21.60;99.90
31527;DHT22;18136;42.236;-73.040;2022-08-06T03:55:26;21.60;99.90
31527;DHT22;18136;42.236;-73.040;2022-08-06T03:57:56;21.60;99.90
31527;DHT22;18136;42.236;-73.040;2022-08-06T04:00:25;21.50;99.90
31527;DHT22;18136;42.236;-73.040;2022-08-06T04:02:54;21.50;99.90
31527;DHT22;18136;42.236;-73.040;2022-08-06T04:05:23;21.50;99.90
31527;DHT22;18136;42.236;-73.040;2022-08-06T04:07:58;21.50;99.90
31527;DHT22;18136;42.236;-73.040;2022-08-06T04:10:28;21.40;99.90
31527;DHT22;18136;42.236;-73.040;2022-08-06T04:12:55;21.50;99.90
31527;DHT22;18136;42.236;-73.040;2022-08-06T04:15:21;21.50;99.90
31527;DHT22;18136;42.236;-73.040;2022-08-06T04:17:49;21.50;99.90
31527;DHT22;18136;42.236;-73.040;2022-08-06T04:20:20;21.40;99.90
31527;DHT22;18136;42.236;-73.040;2022-08-06T04:22:46;21.40;99.90
31527;DHT22;18136;42.236;-73.040;2022-08-06T04:25:13;21.30;99.90
31527;DHT22;18136;42.236;-73.040;2022-08-06T04:27:41;21.30;99.90
31527;DHT22;18136;42.236;-73.040;2022-08-06T04:30:09;21.30;99.90
31527;DHT22;18136;42.236;-73.040;2022-08-06T04:32:36;21.30;99.90
31527;DHT22;18136;42.236;-73.040;2022-08-06T04:35:06;21.20;99.90
31527;DHT22;18136;42.236;-73.040;2022-08-06T04:37:33;21.20;99.90
31527;DHT22;18136;42.236;-73.040;2022-08-06T04:40:02;21.20;99.90
31527;DHT22;18136;42.236;-73.040;2022-08-06T04:42:28;21.20;99.90
31527;DHT22;18136;42.236;-73.040;2022-08-06T04:44:55;21.20;99.90
31527;DHT22;18136;42.236;-73.040;2022-08-06T04:47:23;21.10;99.90
31527;DHT22;18136;42.236;-73.040;2022-08-06T04:49:49;21.10;99.90
31527;DHT22;18136;42.236;-73.040;2022-08-06T04:52:23;21.10;99.90
31527;DHT22;18136;42.236;-73.040;2022-08-06T04:54:49;21.00;99.90
31527;DHT22;18136;42.236;-73.040;2022-08-06T04:57:15;21.10;99.90
31527;DHT22;18136;42.236;-73.040;2022-08-06T04:59:41;21.00;99.90
31527;DHT22;18136;42.236;-73.040;2022-08-06T05:02:07;21.00;99.90
31527;DHT22;18136;42.236;-73.040;2022-08-06T05:04:34;21.00;99.90
31527;DHT22;18136;42.236;-73.040;2022-08-06T05:09:41;21.00;99.90
31527;DHT22;18136;42.236;-73.040;2022-08-06T05:15:21;20.90;99.90
31527;DHT22;18136;42.236;-73.040;2022-08-06T05:17:51;20.90;99.90
31527;DHT22;18136;42.236;-73.040;2022-08-06T05:20:20;20.80;99.90
31527;DHT22;18136;42.236;-73.040;2022-08-06T05:22:54;20.80;99.90
31527;DHT22;18136;42.236;-73.040;2022-08-06T05:25:21;20.80;99.90
31527;DHT22;18136;42.236;-73.040;2022-08-06T05:27:47;20.80;99.90
31527;DHT22;18136;42.236;-73.040;2022-08-06T05:30:14;20.70;99.90
31527;DHT22;18136;42.236;-73.040;2022-08-06T05:32:45;20.80;99.90
31527;DHT22;18136;42.236;-73.040;2022-08-06T05:35:12;20.80;99.90
31527;DHT22;18136;42.236;-73.040;2022-08-06T05:37:38;20.70;99.90
31527;DHT22;18136;42.236;-73.040;2022-08-06T05:40:05;20.70;99.90
31527;DHT22;18136;42.236;-73.040;2022-08-06T05:42:32;20.70;99.90
31527;DHT22;18136;42.236;-73.040;2022-08-06T05:44:58;20.70;99.90
31527;DHT22;18136;42.236;-73.040;2022-08-06T05:47:27;20.70;99.90
31527;DHT22;18136;42.236;-73.040;2022-08-06T05:50:11;20.70;99.90
31527;DHT22;18136;42.236;-73.040;2022-08-06T05:52:50;20.70;99.90
31527;DHT22;18136;42.236;-73.040;2022-08-06T05:55:27;20.70;99.90
31527;DHT22;18136;42.236;-73.040;2022-08-06T05:58:14;20.60;99.90
31527;DHT22;18136;42.236;-73.040;2022-08-06T06:00:41;20.60;99.90
31527;DHT22;18136;42.236;-73.040;2022-08-06T06:03:11;20.60;99.90
31527;DHT22;18136;42.236;-73.040;2022-08-06T06:05:39;20.60;99.90
31527;DHT22;18136;42.236;-73.040;2022-08-06T06:08:06;20.60;99.90
31527;DHT22;18136;42.236;-73.040;2022-08-06T06:10:35;20.60;99.90
31527;DHT22;18136;42.236;-73.040;2022-08-06T06:13:03;20.50;99.90
31527;DHT22;18136;42.236;-73.040;2022-08-06T06:15:29;20.50;99.90
31527;DHT22;18136;42.236;-73.040;2022-08-06T06:20:49;20.50;99.90
31527;DHT22;18136;42.236;-73.040;2022-08-06T06:26:17;20.50;99.90
31527;DHT22;18136;42.236;-73.040;2022-08-06T06:43:03;20.40;99.90
31527;DHT22;18136;42.236;-73.040;2022-08-06T06:45:39;20.40;99.90
31527;DHT22;18136;42.236;-73.040;2022-08-06T06:48:17;20.40;99.90
31527;DHT22;18136;42.236;-73.040;2022-08-06T06:50:51;20.40;99.90
31527;DHT22;18136;42.236;-73.040;2022-08-06T06:53:18;20.40;99.90
31527;DHT22;18136;42.236;-73.040;2022-08-06T06:55:48;20.40;99.90
31527;DHT22;18136;42.236;-73.040;2022-08-06T06:58:37;20.40;99.90
31527;DHT22;18136;42.236;-73.040;2022-08-06T07:01:09;20.30;99.90
31527;DHT22;18136;42.236;-73.040;2022-08-06T07:03:38;20.30;99.90
31527;DHT22;18136;42.236;-73.040;2022-08-06T07:06:06;20.30;99.90
31527;DHT22;18136;42.236;-73.040;2022-08-06T07:08:39;20.30;99.90
31527;DHT22;18136;42.236;-73.040;2022-08-06T07:11:13;20.30;99.90
31527;DHT22;18136;42.236;-73.040;2022-08-06T07:13:41;20.40;99.90
31527;DHT22;18136;42.236;-73.040;2022-08-06T07:16:11;20.20;99.90
31527;DHT22;18136;42.236;-73.040;2022-08-06T07:18:39;20.30;99.90
31527;DHT22;18136;42.236;-73.040;2022-08-06T07:21:09;20.20;99.90
31527;DHT22;18136;42.236;-73.040;2022-08-06T07:23:36;20.30;99.90
31527;DHT22;18136;42.236;-73.040;2022-08-06T07:26:05;20.20;99.90
31527;DHT22;18136;42.236;-73.040;2022-08-06T07:28:31;20.20;99.90
31527;DHT22;18136;42.236;-73.040;2022-08-06T07:31:00;20.20;99.90
31527;DHT22;18136;42.236;-73.040;2022-08-06T07:33:29;20.10;99.90
31527;DHT22;18136;42.236;-73.040;2022-08-06T07:35:56;20.00;99.90
31527;DHT22;18136;42.236;-73.040;2022-08-06T07:38:26;20.10;99.90
31527;DHT22;18136;42.236;-73.040;2022-08-06T07:40:59;20.20;99.90
31527;DHT22;18136;42.236;-73.040;2022-08-06T07:43:32;20.10;99.90
31527;DHT22;18136;42.236;-73.040;2022-08-06T07:46:00;20.00;99.90
31527;DHT22;18136;42.236;-73.040;2022-08-06T07:48:32;20.00;99.90
31527;DHT22;18136;42.236;-73.040;2022-08-06T07:51:02;19.90;99.90
31527;DHT22;18136;42.236;-73.040;2022-08-06T07:53:30;19.90;99.90
31527;DHT22;18136;42.236;-73.040;2022-08-06T07:55:57;19.90;99.90
31527;DHT22;18136;42.236;-73.040;2022-08-06T07:58:25;19.90;99.90
31527;DHT22;18136;42.236;-73.040;2022-08-06T08:00:52;19.90;99.90
31527;DHT22;18136;42.236;-73.040;2022-08-06T08:03:19;19.90;99.90
31527;DHT22;18136;42.236;-73.040;2022-08-06T08:06:04;19.90;99.90
31527;DHT22;18136;42.236;-73.040;2022-08-06T08:08:55;19.90;99.90
31527;DHT22;18136;42.236;-73.040;2022-08-06T08:11:24;19.90;99.90
31527;DHT22;18136;42.236;-73.040;2022-08-06T08:13:52;19.80;99.90
31527;DHT22;18136;42.236;-73.040;2022-08-06T08:16:19;19.90;99.90
31527;DHT22;18136;42.236;-73.040;2022-08-06T08:18:49;19.80;99.90
31527;DHT22;18136;42.236;-73.040;2022-08-06T08:21:16;19.80;99.90
31527;DHT22;18136;42.236;-73.040;2022-08-06T08:23:43;19.80;99.90
31527;DHT22;18136;42.236;-73.040;2022-08-06T08:26:10;19.80;99.90
31527;DHT22;18136;42.236;-73.040;2022-08-06T08:28:37;19.80;99.90
31527;DHT22;18136;42.236;-73.040;2022-08-06T08:31:03;19.70;99.90
31527;DHT22;18136;42.236;-73.040;2022-08-06T08:33:32;19.70;99.90
31527;DHT22;18136;42.236;-73.040;2022-08-06T08:35:59;19.80;99.90
31527;DHT22;18136;42.236;-73.040;2022-08-06T08:38:30;19.70;99.90
31527;DHT22;18136;42.236;-73.040;2022-08-06T08:41:00;19.60;99.90
31527;DHT22;18136;42.236;-73.040;2022-08-06T08:43:36;19.70;99.90
31527;DHT22;18136;42.236;-73.040;2022-08-06T08:46:04;19.60;99.90
31527;DHT22;18136;42.236;-73.040;2022-08-06T08:48:32;19.60;99.90
31527;DHT22;18136;42.236;-73.040;2022-08-06T08:50:59;19.50;99.90
31527;DHT22;18136;42.236;-73.040;2022-08-06T08:53:48;19.60;99.90
31527;DHT22;18136;42.236;-73.040;2022-08-06T08:56:18;19.60;99.90
31527;DHT22;18136;42.236;-73.040;2022-08-06T08:58:44;19.60;99.90
31527;DHT22;18136;42.236;-73.040;2022-08-06T09:01:12;19.60;99.90
31527;DHT22;18136;42.236;-73.040;2022-08-06T09:03:42;19.50;99.90
31527;DHT22;18136;42.236;-73.040;2022-08-06T09:06:08;19.50;99.90
31527;DHT22;18136;42.236;-73.040;2022-08-06T09:08:35;19.50;99.90
31527;DHT22;18136;42.236;-73.040;2022-08-06T09:11:05;19.50;99.90
31527;DHT22;18136;42.236;-73.040;2022-08-06T09:13:31;19.40;99.90
31527;DHT22;18136;42.236;-73.040;2022-08-06T09:15:57;19.40;99.90
31527;DHT22;18136;42.236;-73.040;2022-08-06T09:18:25;19.40;99.90
31527;DHT22;18136;42.236;-73.040;2022-08-06T09:20:52;19.50;99.90
31527;DHT22;18136;42.236;-73.040;2022-08-06T09:23:19;19.50;99.90
31527;DHT22;18136;42.236;-73.040;2022-08-06T09:25:52;19.40;99.90
31527;DHT22;18136;42.236;-73.040;2022-08-06T09:28:33;19.40;99.90
31527;DHT22;18136;42.236;-73.040;2022-08-06T09:31:13;19.40;99.90
31527;DHT22;18136;42.236;-73.040;2022-08-06T09:34:00;19.40;99.90
31527;DHT22;18136;42.236;-73.040;2022-08-06T09:36:26;19.30;99.90
31527;DHT22;18136;42.236;-73.040;2022-08-06T09:38:56;19.30;99.90
31527;DHT22;18136;42.236;-73.040;2022-08-06T09:41:25;19.30;99.90
31527;DHT22;18136;42.236;-73.040;2022-08-06T09:43:53;19.30;99.90
31527;DHT22;18136;42.236;-73.040;2022-08-06T09:46:42;19.30;99.90
31527;DHT22;18136;42.236;-73.040;2022-08-06T09:49:10;19.30;99.90
31527;DHT22;18136;42.236;-73.040;2022-08-06T09:51:37;19.20;99.90
31527;DHT22;18136;42.236;-73.040;2022-08-06T09:54:05;19.20;99.90
31527;DHT22;18136;42.236;-73.040;2022-08-06T09:56:32;19.30;99.90
31527;DHT22;18136;42.236;-73.040;2022-08-06T09:59:06;19.20;99.90
31527;DHT22;18136;42.236;-73.040;2022-08-06T10:01:46;19.30;99.90
31527;DHT22;18136;42.236;-73.040;2022-08-06T10:04:23;19.20;99.90
31527;DHT22;18136;42.236;-73.040;2022-08-06T10:07:07;19.20;99.90
31527;DHT22;18136;42.236;-73.040;2022-08-06T10:09:34;19.20;99.90
31527;DHT22;18136;42.236;-73.040;2022-08-06T10:12:19;19.10;99.90
31527;DHT22;18136;42.236;-73.040;2022-08-06T10:14:46;19.20;99.90
31527;DHT22;18136;42.236;-73.040;2022-08-06T10:17:14;19.20;99.90
31527;DHT22;18136;42.236;-73.040;2022-08-06T10:19:44;19.10;99.90
31527;DHT22;18136;42.236;-73.040;2022-08-06T10:22:16;19.10;99.90
31527;DHT22;18136;42.236;-73.040;2022-08-06T10:24:46;19.10;99.90
31527;DHT22;18136;42.236;-73.040;2022-08-06T10:27:13;19.10;99.90
31527;DHT22;18136;42.236;-73.040;2022-08-06T10:29:42;19.10;99.90
31527;DHT22;18136;42.236;-73.040;2022-08-06T10:32:13;19.10;99.90
31527;DHT22;18136;42.236;-73.040;2022-08-06T10:34:41;19.20;99.90
31527;DHT22;18136;42.236;-73.040;2022-08-06T10:37:10;19.20;99.90
31527;DHT22;18136;42.236;-73.040;2022-08-06T10:39:42;19.20;99.90
31527;DHT22;18136;42.236;-73.040;2022-08-06T10:42:12;19.20;99.90
31527;DHT22;18136;42.236;-73.040;2022-08-06T10:44:39;19.30;99.90
31527;DHT22;18136;42.236;-73.040;2022-08-06T10:47:11;19.30;99.90
31527;DHT22;18136;42.236;-73.040;2022-08-06T10:49:37;19.40;99.90
31527;DHT22;18136;42.236;-73.040;2022-08-06T10:52:04;19.40;99.90
31527;DHT22;18136;42.236;-73.040;2022-08-06T10:54:31;19.40;99.90
31527;DHT22;18136;42.236;-73.040;2022-08-06T10:56:57;19.50;99.90
31527;DHT22;18136;42.236;-73.040;2022-08-06T10:59:23;19.60;99.90
31527;DHT22;18136;42.236;-73.040;2022-08-06T11:04:59;19.70;99.90
31527;DHT22;18136;42.236;-73.040;2022-08-06T11:07:48;19.80;99.90
31527;DHT22;18136;42.236;-73.040;2022-08-06T11:15:49;19.90;99.90
31527;DHT22;18136;42.236;-73.040;2022-08-06T11:18:16;20.00;99.90
31527;DHT22;18136;42.236;-73.040;2022-08-06T11:20:47;20.00;99.90
31527;DHT22;18136;42.236;-73.040;2022-08-06T11:25:45;20.00;99.90
31527;DHT22;18136;42.236;-73.040;2022-08-06T11:28:16;20.00;99.90
31527;DHT22;18136;42.236;-73.040;2022-08-06T11:33:18;20.20;99.90
31527;DHT22;18136;42.236;-73.040;2022-08-06T11:35:48;20.20;99.90
31527;DHT22;18136;42.236;-73.040;2022-08-06T11:38:56;20.40;99.90
31527;DHT22;18136;42.236;-73.040;2022-08-06T11:41:08;20.40;99.90
31527;DHT22;18136;42.236;-73.040;2022-08-06T11:46:29;20.50;99.90
31527;DHT22;18136;42.236;-73.040;2022-08-06T11:49:15;20.60;99.90
31527;DHT22;18136;42.236;-73.040;2022-08-06T11:51:50;20.70;99.90
31527;DHT22;18136;42.236;-73.040;2022-08-06T11:55:21;20.70;99.90
31527;DHT22;18136;42.236;-73.040;2022-08-06T12:00:04;20.90;99.90
31527;DHT22;18136;42.236;-73.040;2022-08-06T12:07:45;21.20;99.90
31527;DHT22;18136;42.236;-73.040;2022-08-06T12:10:16;21.30;99.90
31527;DHT22;18136;42.236;-73.040;2022-08-06T12:12:47;21.40;99.90
31527;DHT22;18136;42.236;-73.040;2022-08-06T12:20:39;21.60;99.90
31527;DHT22;18136;42.236;-73.040;2022-08-06T12:23:10;21.70;99.90
31527;DHT22;18136;42.236;-73.040;2022-08-06T12:25:38;21.70;99.90
31527;DHT22;18136;42.236;-73.040;2022-08-06T12:28:06;21.80;99.90
31527;DHT22;18136;42.236;-73.040;2022-08-06T12:33:11;21.90;99.90
31527;DHT22;18136;42.236;-73.040;2022-08-06T12:35:53;21.90;99.90
31527;DHT22;18136;42.236;-73.040;2022-08-06T12:38:20;22.00;99.90
31527;DHT22;18136;42.236;-73.040;2022-08-06T12:40:58;22.00;99.90
31527;DHT22;18136;42.236;-73.040;2022-08-06T12:43:25;22.10;99.90
31527;DHT22;18136;42.236;-73.040;2022-08-06T12:45:59;22.20;99.90
31527;DHT22;18136;42.236;-73.040;2022-08-06T12:48:25;22.40;99.90
31527;DHT22;18136;42.236;-73.040;2022-08-06T12:51:10;22.40;99.90
31527;DHT22;18136;42.236;-73.040;2022-08-06T12:54:27;22.60;99.90
31527;DHT22;18136;42.236;-73.040;2022-08-06T12:56:30;22.70;99.90
31527;DHT22;18136;42.236;-73.040;2022-08-06T12:58:57;22.90;99.90
31527;DHT22;18136;42.236;-73.040;2022-08-06T13:01:26;23.00;99.90
31527;DHT22;18136;42.236;-73.040;2022-08-06T13:03:54;23.10;99.90
31527;DHT22;18136;42.236;-73.040;2022-08-06T13:06:25;23.20;99.90
31527;DHT22;18136;42.236;-73.040;2022-08-06T13:08:54;23.40;99.90
31527;DHT22;18136;42.236;-73.040;2022-08-06T13:11:27;23.50;99.90
31527;DHT22;18136;42.236;-73.040;2022-08-06T13:13:54;23.70;99.90
31527;DHT22;18136;42.236;-73.040;2022-08-06T13:16:20;23.80;99.90
31527;DHT22;18136;42.236;-73.040;2022-08-06T13:19:10;24.00;99.90
31527;DHT22;18136;42.236;-73.040;2022-08-06T13:21:38;24.20;99.90
31527;DHT22;18136;42.236;-73.040;2022-08-06T13:24:05;24.40;99.90
31527;DHT22;18136;42.236;-73.040;2022-08-06T13:26:34;24.50;99.90
31527;DHT22;18136;42.236;-73.040;2022-08-06T13:29:17;24.70;99.90
31527;DHT22;18136;42.236;-73.040;2022-08-06T13:31:46;24.90;99.90
31527;DHT22;18136;42.236;-73.040;2022-08-06T13:34:15;25.00;99.90
31527;DHT22;18136;42.236;-73.040;2022-08-06T13:36:44;25.20;99.90
31527;DHT22;18136;42.236;-73.040;2022-08-06T13:39:29;25.30;99.90
31527;DHT22;18136;42.236;-73.040;2022-08-06T13:42:10;25.40;99.90
31527;DHT22;18136;42.236;-73.040;2022-08-06T13:44:44;25.60;99.90
31527;DHT22;18136;42.236;-73.040;2022-08-06T13:47:12;25.60;99.90
31527;DHT22;18136;42.236;-73.040;2022-08-06T13:49:42;25.80;99.90
31527;DHT22;18136;42.236;-73.040;2022-08-06T13:52:10;26.00;99.90
31527;DHT22;18136;42.236;-73.040;2022-08-06T13:54:37;26.10;99.90
31527;DHT22;18136;42.236;-73.040;2022-08-06T13:57:03;26.20;99.90
31527;DHT22;18136;42.236;-73.040;2022-08-06T13:59:31;26.40;99.90
31527;DHT22;18136;42.236;-73.040;2022-08-06T14:01:58;26.50;99.90
31527;DHT22;18136;42.236;-73.040;2022-08-06T14:04:25;26.70;99.90
31527;DHT22;18136;42.236;-73.040;2022-08-06T14:06:54;26.80;99.90
31527;DHT22;18136;42.236;-73.040;2022-08-06T14:09:22;26.90;99.90
31527;DHT22;18136;42.236;-73.040;2022-08-06T14:11:54;27.10;99.90
31527;DHT22;18136;42.236;-73.040;2022-08-06T14:14:25;27.10;99.90
31527;DHT22;18136;42.236;-73.040;2022-08-06T14:16:51;27.20;99.90
31527;DHT22;18136;42.236;-73.040;2022-08-06T14:19:22;27.20;99.90
31527;DHT22;18136;42.236;-73.040;2022-08-06T14:21:48;27.30;99.90
31527;DHT22;18136;42.236;-73.040;2022-08-06T14:24:14;27.50;99.90
31527;DHT22;18136;42.236;-73.040;2022-08-06T14:26:41;27.60;99.90
31527;DHT22;18136;42.236;-73.040;2022-08-06T14:29:07;27.80;99.90
31527;DHT22;18136;42.236;-73.040;2022-08-06T14:31:33;27.80;99.90
31527;DHT22;18136;42.236;-73.040;2022-08-06T14:33:59;27.80;99.90
31527;DHT22;18136;42.236;-73.040;2022-08-06T14:36:29;27.90;99.90
31527;DHT22;18136;42.236;-73.040;2022-08-06T14:38:56;27.70;99.90
31527;DHT22;18136;42.236;-73.040;2022-08-06T14:41:23;27.50;99.90
31527;DHT22;18136;42.236;-73.040;2022-08-06T14:44:09;27.30;99.90
31527;DHT22;18136;42.236;-73.040;2022-08-06T14:46:54;27.30;99.90
31527;DHT22;18136;42.236;-73.040;2022-08-06T14:49:21;27.50;99.90
31527;DHT22;18136;42.236;-73.040;2022-08-06T14:51:47;27.80;99.90
31527;DHT22;18136;42.236;-73.040;2022-08-06T14:54:14;28.10;99.90
31527;DHT22;18136;42.236;-73.040;2022-08-06T14:56:41;28.20;99.90
31527;DHT22;18136;42.236;-73.040;2022-08-06T14:59:08;28.50;99.90
31527;DHT22;18136;42.236;-73.040;2022-08-06T15:01:34;28.70;99.90
31527;DHT22;18136;42.236;-73.040;2022-08-06T15:04:00;28.90;99.90
31527;DHT22;18136;42.236;-73.040;2022-08-06T15:06:29;28.80;99.90
31527;DHT22;18136;42.236;-73.040;2022-08-06T15:08:56;28.80;99.90
31527;DHT22;18136;42.236;-73.040;2022-08-06T15:11:37;29.00;99.90
31527;DHT22;18136;42.236;-73.040;2022-08-06T15:14:06;29.10;99.90
31527;DHT22;18136;42.236;-73.040;2022-08-06T15:16:33;29.00;99.90
31527;DHT22;18136;42.236;-73.040;2022-08-06T15:18:59;28.80;99.90
31527;DHT22;18136;42.236;-73.040;2022-08-06T15:21:25;28.70;99.90
31527;DHT22;18136;42.236;-73.040;2022-08-06T15:23:52;28.70;99.90
31527;DHT22;18136;42.236;-73.040;2022-08-06T15:26:20;28.60;99.90
31527;DHT22;18136;42.236;-73.040;2022-08-06T15:28:47;28.40;99.90
31527;DHT22;18136;42.236;-73.040;2022-08-06T15:31:13;28.40;99.90
31527;DHT22;18136;42.236;-73.040;2022-08-06T15:33:54;28.50;99.90
31527;DHT22;18136;42.236;-73.040;2022-08-06T15:36:23;28.70;99.90
31527;DHT22;18136;42.236;-73.040;2022-08-06T15:38:49;28.90;99.90
31527;DHT22;18136;42.236;-73.040;2022-08-06T15:41:17;29.10;99.90
31527;DHT22;18136;42.236;-73.040;2022-08-06T15:43:44;28.90;99.90
31527;DHT22;18136;42.236;-73.040;2022-08-06T15:46:19;28.90;99.90
31527;DHT22;18136;42.236;-73.040;2022-08-06T15:48:46;28.90;99.90
31527;DHT22;18136;42.236;-73.040;2022-08-06T15:51:12;29.20;99.90
31527;DHT22;18136;42.236;-73.040;2022-08-06T15:53:38;29.40;99.90
31527;DHT22;18136;42.236;-73.040;2022-08-06T15:56:04;29.60;99.90
31527;DHT22;18136;42.236;-73.040;2022-08-06T15:58:31;29.60;99.90
31527;DHT22;18136;42.236;-73.040;2022-08-06T16:00:57;29.60;99.90
31527;DHT22;18136;42.236;-73.040;2022-08-06T16:03:23;29.50;99.90
31527;DHT22;18136;42.236;-73.040;2022-08-06T16:05:49;29.50;99.90
31527;DHT22;18136;42.236;-73.040;2022-08-06T16:08:28;29.60;99.90
31527;DHT22;18136;42.236;-73.040;2022-08-06T16:10:54;29.60;99.90
31527;DHT22;18136;42.236;-73.040;2022-08-06T16:13:20;29.60;99.90
31527;DHT22;18136;42.236;-73.040;2022-08-06T16:15:48;29.50;99.90
31527;DHT22;18136;42.236;-73.040;2022-08-06T16:18:20;29.50;99.90
31527;DHT22;18136;42.236;-73.040;2022-08-06T16:20:50;29.60;99.90
31527;DHT22;18136;42.236;-73.040;2022-08-06T16:23:17;29.70;99.90
31527;DHT22;18136;42.236;-73.040;2022-08-06T16:25:43;29.70;99.90
31527;DHT22;18136;42.236;-73.040;2022-08-06T16:28:10;29.70;99.90
31527;DHT22;18136;42.236;-73.040;2022-08-06T16:30:37;29.70;99.90
31527;DHT22;18136;42.236;-73.040;2022-08-06T16:33:03;29.60;99.90
31527;DHT22;18136;42.236;-73.040;2022-08-06T16:35:30;29.70;99.90
31527;DHT22;18136;42.236;-73.040;2022-08-06T16:37:56;29.50;99.90
31527;DHT22;18136;42.236;-73.040;2022-08-06T16:40:24;29.10;99.90
31527;DHT22;18136;42.236;-73.040;2022-08-06T16:42:52;28.90;99.90